createdAt,value
2016-03-11T00:00:07.193Z,1
2016-03-11T00:03:18.873Z,1
2016-03-11T00:06:34.819Z,1
2016-03-11T00:09:41.170Z,1
2016-03-11T00:12:41.679Z,1
2016-03-11T00:15:51.297Z,1
2016-03-11T00:19:02.866Z,1
2016-03-11T00:22:14.422Z,1
2016-03-11T00:25:25.916Z,1
2016-03-11T00:28:37.503Z,1
2016-03-11T00:31:49.214Z,1
2016-03-11T00:34:58.237Z,1
2016-03-11T00:38:09.153Z,1
2016-03-11T00:41:20.679Z,1
2016-03-11T00:44:38.281Z,1
2016-03-11T00:47:38.726Z,1
2016-03-11T00:50:50.219Z,1
2016-03-11T00:54:01.900Z,0
2016-03-11T00:57:13.642Z,0
2016-03-11T01:00:24.746Z,0
2016-03-11T01:03:42.161Z,0
2016-03-11T01:06:42.637Z,0
2016-03-11T01:09:54.114Z,0
2016-03-11T01:13:02.997Z,0
2016-03-11T01:16:14.443Z,0
2016-03-11T01:19:23.654Z,0
2016-03-11T01:22:39.508Z,0
2016-03-11T01:25:39.970Z,0
2016-03-11T01:28:51.509Z,0
2016-03-11T01:32:01.439Z,0
2016-03-11T01:35:13.010Z,0
2016-03-11T01:38:22.018Z,0
2016-03-11T01:41:36.791Z,0
2016-03-11T01:44:43.366Z,0
2016-03-11T01:47:43.810Z,0
2016-03-11T01:50:55.194Z,0
2016-03-11T01:54:06.670Z,0
2016-03-11T01:57:18.132Z,0
2016-03-11T02:00:35.719Z,0
2016-03-11T02:03:42.164Z,0
2016-03-11T02:06:42.531Z,0
2016-03-11T02:09:54.107Z,0
2016-03-11T02:13:05.845Z,0
2016-03-11T02:16:14.070Z,0
2016-03-11T02:19:25.999Z,0
2016-03-11T02:22:37.913Z,0
2016-03-11T02:25:49.221Z,0
2016-03-11T02:29:00.916Z,0
2016-03-11T02:32:10.706Z,0
2016-03-11T02:35:20.979Z,0
2016-03-11T02:38:37.910Z,0
2016-03-11T02:41:38.403Z,0
2016-03-11T02:44:47.382Z,0
2016-03-11T02:47:58.733Z,0
2016-03-11T02:51:10.257Z,0
2016-03-11T02:54:20.093Z,0
2016-03-11T02:57:37.820Z,0
2016-03-11T03:00:38.484Z,0
2016-03-11T03:03:50.057Z,0
2016-03-11T03:06:58.065Z,0
2016-03-11T03:10:09.151Z,0
2016-03-11T03:13:20.738Z,0
2016-03-11T03:16:36.605Z,0
2016-03-11T03:19:43.083Z,0
2016-03-11T03:22:43.638Z,0
2016-03-11T03:25:55.195Z,0
2016-03-11T03:29:04.125Z,0
2016-03-11T03:32:12.274Z,0
2016-03-11T03:35:20.468Z,0
2016-03-11T03:38:36.884Z,0
2016-03-11T03:41:43.407Z,0
2016-03-11T03:44:43.712Z,0
2016-03-11T03:47:52.082Z,0
2016-03-11T03:51:03.809Z,0
2016-03-11T03:54:15.238Z,0
2016-03-11T03:57:26.560Z,0
2016-03-11T04:00:41.802Z,0
2016-03-11T04:03:42.185Z,0
2016-03-11T04:06:53.821Z,0
2016-03-11T04:10:05.313Z,0
2016-03-11T04:13:16.806Z,0
2016-03-11T04:16:24.423Z,0
2016-03-11T04:19:41.931Z,0
2016-03-11T04:22:42.439Z,0
2016-03-11T04:25:53.778Z,0
2016-03-11T04:29:05.474Z,0
2016-03-11T04:32:16.763Z,0
2016-03-11T04:35:25.255Z,0
2016-03-11T04:38:41.029Z,0
2016-03-11T04:41:41.396Z,0
2016-03-11T04:44:51.576Z,0
2016-03-11T04:48:03.150Z,0
2016-03-11T04:51:11.595Z,0
2016-03-11T04:54:23.103Z,0
2016-03-11T04:57:40.689Z,1
2016-03-11T05:00:41.166Z,1
2016-03-11T05:03:50.612Z,2
2016-03-11T05:07:02.050Z,2
2016-03-11T05:10:10.605Z,5
2016-03-11T05:13:22.051Z,8
2016-03-11T05:16:37.590Z,14
2016-03-11T05:19:44.082Z,21
2016-03-11T05:22:44.356Z,32
2016-03-11T05:25:52.586Z,41
2016-03-11T05:29:04.125Z,52
2016-03-11T05:32:15.462Z,67
2016-03-11T05:35:24.813Z,87
2016-03-11T05:38:42.415Z,106
2016-03-11T05:41:42.877Z,130
2016-03-11T05:44:54.137Z,168
2016-03-11T05:48:05.661Z,184
2016-03-11T05:51:17.184Z,193
2016-03-11T05:54:26.567Z,207
2016-03-11T05:57:43.373Z,241
2016-03-11T06:00:43.614Z,303
2016-03-11T06:03:55.047Z,319
2016-03-11T06:07:03.572Z,362
2016-03-11T06:10:13.313Z,387
2016-03-11T06:13:21.556Z,385
2016-03-11T06:16:36.330Z,403
2016-03-11T06:19:43.056Z,421
2016-03-11T06:22:43.534Z,438
2016-03-11T06:25:55.137Z,472
2016-03-11T06:29:06.661Z,544
2016-03-11T06:32:16.154Z,553
2016-03-11T06:35:24.943Z,655
2016-03-11T06:38:40.061Z,733
2016-03-11T06:41:40.600Z,817
2016-03-11T06:44:50.279Z,847
2016-03-11T06:48:01.571Z,791
2016-03-11T06:51:12.876Z,798
2016-03-11T06:54:22.588Z,872
2016-03-11T06:57:40.237Z,1044
2016-03-11T07:00:40.636Z,1086
2016-03-11T07:03:52.081Z,1070
2016-03-11T07:07:04.155Z,1096
2016-03-11T07:10:11.960Z,1207
2016-03-11T07:13:23.593Z,1159
2016-03-11T07:16:41.272Z,1234
2016-03-11T07:19:41.765Z,1235
2016-03-11T07:22:53.163Z,1319
2016-03-11T07:26:03.862Z,1365
2016-03-11T07:29:15.729Z,1331
2016-03-11T07:32:27.394Z,1299
2016-03-11T07:35:42.886Z,1605
2016-03-11T07:38:43.222Z,1421
2016-03-11T07:41:54.873Z,1457
2016-03-11T07:45:06.397Z,1569
2016-03-11T07:48:15.390Z,1495
2016-03-11T07:51:26.304Z,1671
2016-03-11T07:54:41.437Z,1917
2016-03-11T07:57:41.742Z,1928
2016-03-11T08:00:50.453Z,1798
2016-03-11T08:04:02.026Z,2068
2016-03-11T08:07:13.347Z,2236
2016-03-11T08:10:22.480Z,2319
2016-03-11T08:13:39.770Z,2365
2016-03-11T08:16:40.294Z,2616
2016-03-11T08:19:50.208Z,2811
2016-03-11T08:23:01.531Z,2800
2016-03-11T08:26:12.617Z,2665
2016-03-11T08:29:24.078Z,3429
2016-03-11T08:32:41.867Z,3276
2016-03-11T08:35:42.391Z,3266
2016-03-11T08:38:53.915Z,3115
2016-03-11T08:42:04.175Z,3178
2016-03-11T08:45:15.652Z,3116
2016-03-11T08:48:27.348Z,3059
2016-03-11T08:51:44.747Z,3047
2016-03-11T08:54:45.442Z,3110
2016-03-11T08:57:56.984Z,3071
2016-03-11T09:01:08.211Z,3236
2016-03-11T09:04:19.656Z,3346
2016-03-11T09:07:37.149Z,3414
2016-03-11T09:10:43.750Z,3460
2016-03-11T09:13:44.321Z,3487
2016-03-11T09:16:55.894Z,3384
2016-03-11T09:20:07.387Z,3544
2016-03-11T09:23:19.004Z,3809
2016-03-11T09:26:36.231Z,3741
2016-03-11T09:29:42.959Z,3912
2016-03-11T09:32:43.654Z,4039
2016-03-11T09:35:55.303Z,4094
2016-03-11T09:39:06.861Z,4113
2016-03-11T09:42:16.352Z,4267
2016-03-11T09:45:27.969Z,4406
2016-03-11T09:48:42.884Z,4371
2016-03-11T09:51:43.518Z,4010
2016-03-11T09:54:53.432Z,3550
2016-03-11T09:58:05.005Z,4038
2016-03-11T10:01:16.794Z,2546
2016-03-11T10:04:25.098Z,2133
2016-03-11T10:07:42.785Z,1972
2016-03-11T10:10:43.449Z,1879
2016-03-11T10:13:54.910Z,1945
2016-03-11T10:17:07.015Z,2074
2016-03-11T10:20:15.663Z,2666
2016-03-11T10:23:24.999Z,3270
2016-03-11T10:26:42.664Z,3417
2016-03-11T10:29:43.312Z,3761
2016-03-11T10:32:52.195Z,3812
2016-03-11T10:36:03.831Z,3615
2016-03-11T10:39:15.511Z,3460
2016-03-11T10:42:27.003Z,3779
2016-03-11T10:45:44.465Z,3893
2016-03-11T10:48:45.255Z,3738
2016-03-11T10:51:56.763Z,4123
2016-03-11T10:55:07.024Z,3989
2016-03-11T10:58:18.687Z,3316
2016-03-11T11:01:27.180Z,4876
2016-03-11T11:04:45.110Z,4598
2016-03-11T11:07:45.925Z,4751
2016-03-11T11:10:57.315Z,4798
2016-03-11T11:14:09.163Z,4901
2016-03-11T11:17:21.069Z,4948
2016-03-11T11:20:37.385Z,4684
2016-03-11T11:23:44.281Z,4087
2016-03-11T11:26:45.054Z,4022
2016-03-11T11:29:54.560Z,3525
2016-03-11T11:33:06.133Z,4839
2016-03-11T11:36:14.687Z,6474
2016-03-11T11:39:26.556Z,8213
2016-03-11T11:42:42.376Z,6993
2016-03-11T11:45:43.353Z,6024
2016-03-11T11:48:55.408Z,5898
2016-03-11T11:52:07.310Z,6401
2016-03-11T11:55:16.786Z,4997
2016-03-11T11:58:28.591Z,3644
2016-03-11T12:01:40.521Z,3654
2016-03-11T12:04:52.435Z,5328
2016-03-11T12:08:03.337Z,3531
2016-03-11T12:11:15.095Z,4443
2016-03-11T12:14:25.697Z,6238
2016-03-11T12:17:41.017Z,4689
2016-03-11T12:20:41.931Z,2966
2016-03-11T12:23:53.986Z,3975
2016-03-11T12:27:05.779Z,3259
2016-03-11T12:30:15.193Z,3381
2016-03-11T12:33:24.670Z,4406
2016-03-11T12:36:40.881Z,3860
2016-03-11T12:39:41.873Z,4591
2016-03-11T12:42:53.944Z,2913
2016-03-11T12:46:05.892Z,2394
2016-03-11T12:49:17.556Z,2099
2016-03-11T12:52:29.330Z,2288
2016-03-11T12:55:40.994Z,2254
2016-03-11T12:58:52.346Z,2658
2016-03-11T13:02:01.357Z,3946
2016-03-11T13:05:10.365Z,5332
2016-03-11T13:08:18.842Z,5242
2016-03-11T13:11:28.147Z,4855
2016-03-11T13:14:46.139Z,5023
2016-03-11T13:17:47.069Z,4659
2016-03-11T13:20:56.936Z,3674
2016-03-11T13:24:08.838Z,2493
2016-03-11T13:27:20.721Z,3092
2016-03-11T13:30:38.511Z,2947
2016-03-11T13:33:45.456Z,4531
2016-03-11T13:36:46.354Z,4422
2016-03-11T13:39:57.847Z,4296
2016-03-11T13:43:07.889Z,3930
2016-03-11T13:46:19.116Z,2891
2016-03-11T13:49:36.795Z,2841
2016-03-11T13:52:43.554Z,3700
2016-03-11T13:55:44.452Z,2585
2016-03-11T13:58:55.554Z,2171
2016-03-11T14:02:05.753Z,2115
2016-03-11T14:05:16.621Z,2607
2016-03-11T14:08:28.378Z,2660
2016-03-11T14:11:44.651Z,4005
2016-03-11T14:14:45.519Z,3440
2016-03-11T14:17:54.590Z,2691
2016-03-11T14:21:03.914Z,2251
2016-03-11T14:24:15.937Z,1826
2016-03-11T14:27:24.991Z,1562
2016-03-11T14:30:40.234Z,1320
2016-03-11T14:33:41.023Z,1091
2016-03-11T14:36:50.110Z,795
2016-03-11T14:39:58.290Z,878
2016-03-11T14:43:09.394Z,593
2016-03-11T14:46:18.512Z,990
2016-03-11T14:49:26.879Z,1035
2016-03-11T14:52:44.715Z,1134
2016-03-11T14:55:45.524Z,1341
2016-03-11T14:58:57.234Z,1785
2016-03-11T15:02:07.433Z,1281
2016-03-11T15:05:16.911Z,999
2016-03-11T15:08:28.761Z,924
2016-03-11T15:11:46.114Z,906
2016-03-11T15:14:46.966Z,920
2016-03-11T15:17:58.224Z,833
2016-03-11T15:21:10.125Z,743
2016-03-11T15:24:20.290Z,631
2016-03-11T15:27:37.922Z,567
2016-03-11T15:30:44.765Z,465
2016-03-11T15:33:45.855Z,401
2016-03-11T15:36:56.359Z,359
2016-03-11T15:40:04.900Z,365
2016-03-11T15:43:16.305Z,303
2016-03-11T15:46:25.297Z,303
2016-03-11T15:49:40.836Z,276
2016-03-11T15:52:41.485Z,261
2016-03-11T15:55:53.258Z,273
2016-03-11T15:59:01.688Z,255
2016-03-11T16:02:10.542Z,254
2016-03-11T16:05:19.239Z,234
2016-03-11T16:08:29.303Z,228
2016-03-11T16:11:46.593Z,248
2016-03-11T16:14:46.992Z,213
2016-03-11T16:17:58.421Z,206
2016-03-11T16:21:07.651Z,187
2016-03-11T16:24:17.144Z,174
2016-03-11T16:27:28.698Z,144
2016-03-11T16:30:44.143Z,136
2016-03-11T16:33:44.761Z,117
2016-03-11T16:36:53.519Z,102
2016-03-11T16:40:05.233Z,101
2016-03-11T16:43:14.492Z,80
2016-03-11T16:46:24.376Z,68
2016-03-11T16:49:39.290Z,59
2016-03-11T16:52:45.907Z,65
2016-03-11T16:55:46.524Z,47
2016-03-11T16:58:56.032Z,35
2016-03-11T17:02:07.496Z,26
2016-03-11T17:05:16.582Z,21
2016-03-11T17:08:28.701Z,14
2016-03-11T17:11:46.521Z,10
2016-03-11T17:14:47.138Z,8
2016-03-11T17:17:55.912Z,4
2016-03-11T17:21:07.547Z,3
2016-03-11T17:24:19.259Z,2
2016-03-11T17:27:30.892Z,1
2016-03-11T17:30:45.227Z,1
2016-03-11T17:33:45.752Z,1
2016-03-11T17:36:54.416Z,1
2016-03-11T17:40:04.095Z,1
2016-03-11T17:43:13.263Z,1
2016-03-11T17:46:24.959Z,1
2016-03-11T17:49:42.388Z,1
2016-03-11T17:52:42.864Z,1
2016-03-11T17:55:54.389Z,1
2016-03-11T17:59:05.728Z,1
2016-03-11T18:02:17.330Z,1
2016-03-11T18:05:28.916Z,1
2016-03-11T18:08:46.487Z,1
2016-03-11T18:11:46.932Z,1
2016-03-11T18:14:58.518Z,1
2016-03-11T18:18:07.982Z,1
2016-03-11T18:21:19.287Z,1
2016-03-11T18:24:27.670Z,1
2016-03-11T18:27:42.256Z,1
2016-03-11T18:30:42.780Z,1
2016-03-11T18:33:52.694Z,1
2016-03-11T18:37:04.015Z,1
2016-03-11T18:40:15.432Z,1
2016-03-11T18:43:25.971Z,1
2016-03-11T18:46:43.572Z,1
2016-03-11T18:49:44.112Z,1
2016-03-11T18:52:56.058Z,1
2016-03-11T18:56:07.225Z,1
2016-03-11T18:59:16.233Z,1
2016-03-11T19:02:27.382Z,1
2016-03-11T19:05:43.249Z,1
2016-03-11T19:08:43.741Z,1
2016-03-11T19:11:52.937Z,1
2016-03-11T19:15:04.320Z,1
2016-03-11T19:18:14.079Z,1
2016-03-11T19:21:25.524Z,1
2016-03-11T19:24:41.376Z,1
2016-03-11T19:27:41.868Z,1
2016-03-11T19:30:51.298Z,1
2016-03-11T19:34:02.791Z,1
2016-03-11T19:37:14.349Z,1
2016-03-11T19:40:24.201Z,1
2016-03-11T19:43:41.630Z,1
2016-03-11T19:46:42.076Z,1
2016-03-11T19:49:51.006Z,1
2016-03-11T19:53:02.529Z,1
2016-03-11T19:56:13.853Z,1
2016-03-11T19:59:23.908Z,1
2016-03-11T20:02:41.369Z,1
2016-03-11T20:05:47.861Z,1
2016-03-11T20:08:48.369Z,1
2016-03-11T20:11:58.169Z,1
2016-03-11T20:15:06.565Z,1
2016-03-11T20:18:18.144Z,1
2016-03-11T20:21:27.267Z,1
2016-03-11T20:24:42.583Z,1
2016-03-11T20:27:42.994Z,1
2016-03-11T20:30:52.907Z,1
2016-03-11T20:34:04.304Z,1
2016-03-11T20:37:15.939Z,1
2016-03-11T20:40:25.947Z,1
2016-03-11T20:43:40.627Z,1
2016-03-11T20:46:47.791Z,1
2016-03-11T20:49:48.674Z,1
2016-03-11T20:53:00.151Z,1
2016-03-11T20:56:11.678Z,1
2016-03-11T20:59:23.437Z,1
2016-03-11T21:02:41.445Z,1
2016-03-11T21:05:42.124Z,1
2016-03-11T21:08:53.741Z,1
2016-03-11T21:12:05.281Z,1
2016-03-11T21:15:14.447Z,1
2016-03-11T21:18:23.909Z,1
2016-03-11T21:21:31.604Z,1
2016-03-11T21:24:43.237Z,1
2016-03-11T21:27:54.479Z,1
2016-03-11T21:31:05.722Z,1
2016-03-11T21:34:14.531Z,1
2016-03-11T21:37:25.179Z,1
2016-03-11T21:40:42.594Z,1
2016-03-11T21:43:43.102Z,1
2016-03-11T21:46:52.844Z,1
2016-03-11T21:50:04.289Z,1
2016-03-11T21:53:14.034Z,1
2016-03-11T21:56:24.979Z,1
2016-03-11T21:59:39.956Z,1
2016-03-11T22:02:46.386Z,1
2016-03-11T22:05:46.926Z,1
2016-03-11T22:08:58.230Z,1
2016-03-11T22:12:09.898Z,1
2016-03-11T22:15:20.733Z,1
2016-03-11T22:18:31.242Z,1
2016-03-11T22:21:48.610Z,1
2016-03-11T22:24:49.040Z,1
2016-03-11T22:28:00.345Z,1
2016-03-11T22:31:10.355Z,1
2016-03-11T22:34:20.206Z,1
2016-03-11T22:37:29.387Z,1
2016-03-11T22:40:46.864Z,1
2016-03-11T22:43:47.341Z,1
2016-03-11T22:46:56.396Z,1
2016-03-11T22:50:07.888Z,1
2016-03-11T22:53:17.586Z,1
2016-03-11T22:56:29.172Z,1
2016-03-11T22:59:46.711Z,1
2016-03-11T23:02:47.234Z,1
2016-03-11T23:05:58.728Z,1
2016-03-11T23:09:10.361Z,1
2016-03-11T23:12:21.653Z,1
2016-03-11T23:15:30.833Z,1
2016-03-11T23:18:48.372Z,1
2016-03-11T23:21:48.849Z,1
2016-03-11T23:24:57.060Z,1
2016-03-11T23:28:08.474Z,1
2016-03-11T23:31:19.876Z,1
2016-03-11T23:34:31.384Z,1
2016-03-11T23:37:45.189Z,1
2016-03-11T23:40:45.619Z,1
2016-03-11T23:43:54.845Z,1
2016-03-11T23:47:03.135Z,1
2016-03-11T23:50:14.380Z,1
2016-03-11T23:53:25.669Z,1
2016-03-11T23:56:41.912Z,1
2016-03-11T23:59:48.435Z,1
